createdAt,value
2022-08-16T00:00:23.809Z,23.80
2022-08-16T00:02:52.670Z,23.80
2022-08-16T00:05:21.800Z,23.70
2022-08-16T00:07:56.336Z,23.70
2022-08-16T00:10:26.399Z,23.70
2022-08-16T00:12:56.957Z,23.70
2022-08-16T00:15:51.827Z,23.70
2022-08-16T00:18:22.083Z,23.60
2022-08-16T00:20:55.711Z,23.60
2022-08-16T00:23:25.262Z,23.60
2022-08-16T00:26:36.159Z,23.60
2022-08-16T00:28:49.712Z,23.60
2022-08-16T00:31:24.161Z,23.60
2022-08-16T00:33:51.723Z,23.50
2022-08-16T00:36:20.016Z,23.50
2022-08-16T00:38:47.761Z,23.50
2022-08-16T00:41:15.793Z,23.50
2022-08-16T00:43:44.562Z,23.50
2022-08-16T00:46:32.902Z,23.50
2022-08-16T00:49:06.455Z,23.40
2022-08-16T00:51:33.825Z,23.40
2022-08-16T00:54:01.983Z,23.30
2022-08-16T00:56:58.632Z,23.30
2022-08-16T00:59:23.751Z,23.30
2022-08-16T01:01:52.245Z,23.30
2022-08-16T01:04:29.245Z,23.30
2022-08-16T01:07:02.046Z,23.20
2022-08-16T01:09:33.583Z,23.20
2022-08-16T01:12:03.297Z,23.20
2022-08-16T01:14:36.522Z,23.20
2022-08-16T01:17:08.435Z,23.20
2022-08-16T01:19:44.084Z,23.10
2022-08-16T01:22:49.496Z,23.20
2022-08-16T01:25:18.610Z,23.10
2022-08-16T01:27:53.527Z,23.10
2022-08-16T01:30:26.672Z,23.00
2022-08-16T01:33:14.371Z,23.00
2022-08-16T01:36:11.703Z,23.00
2022-08-16T01:38:49.003Z,23.00
2022-08-16T01:41:21.911Z,22.90
2022-08-16T01:43:53.693Z,22.90
2022-08-16T01:46:37.665Z,22.90
2022-08-16T01:49:12.947Z,22.90
2022-08-16T01:51:45.140Z,22.90
2022-08-16T01:54:15.496Z,22.90
2022-08-16T01:56:52.614Z,22.80
2022-08-16T01:59:22.361Z,22.80
2022-08-16T02:01:52.562Z,22.80
2022-08-16T02:04:48.063Z,22.80
2022-08-16T02:07:18.374Z,22.80
2022-08-16T02:09:57.157Z,22.70
2022-08-16T02:12:49.365Z,22.70
2022-08-16T02:15:24.969Z,22.70
2022-08-16T02:17:59.055Z,22.70
2022-08-16T02:20:32.908Z,22.70
2022-08-16T02:23:05.708Z,22.70
2022-08-16T02:25:52.391Z,22.70
2022-08-16T02:28:24.300Z,22.60
2022-08-16T02:30:53.969Z,22.60
2022-08-16T02:33:24.668Z,22.60
2022-08-16T02:36:42.255Z,22.60
2022-08-16T02:39:03.996Z,22.60
2022-08-16T02:41:31.443Z,22.60
2022-08-16T02:44:01.440Z,22.60
2022-08-16T02:46:30.207Z,22.60
2022-08-16T02:49:02.482Z,22.50
2022-08-16T02:51:31.308Z,22.50
2022-08-16T02:54:00.130Z,22.50
2022-08-16T02:56:32.398Z,22.50
2022-08-16T02:59:00.252Z,22.40
2022-08-16T03:01:36.544Z,22.50
2022-08-16T03:04:51.079Z,22.50
2022-08-16T03:07:27.640Z,22.50
2022-08-16T03:10:00.410Z,22.40
2022-08-16T03:12:30.240Z,22.40
2022-08-16T03:15:07.260Z,22.40
2022-08-16T03:17:36.612Z,22.40
2022-08-16T03:20:21.192Z,22.40
2022-08-16T03:23:01.757Z,22.30
2022-08-16T03:25:44.330Z,22.30
2022-08-16T03:28:14.397Z,22.30
2022-08-16T03:30:45.159Z,22.30
2022-08-16T03:33:16.104Z,22.30
2022-08-16T03:35:50.710Z,22.20
2022-08-16T03:38:32.486Z,22.30
2022-08-16T03:41:25.400Z,22.20
2022-08-16T03:43:58.553Z,22.20
2022-08-16T03:46:44.933Z,22.20
2022-08-16T03:49:20.374Z,22.10
2022-08-16T03:51:54.382Z,22.10
2022-08-16T03:54:25.445Z,22.10
2022-08-16T03:56:56.695Z,22.10
2022-08-16T03:59:29.550Z,22.10
2022-08-16T04:02:01.212Z,22.10
2022-08-16T04:04:32.530Z,22.00
2022-08-16T04:07:03.992Z,22.10
2022-08-16T04:09:35.488Z,22.10
2022-08-16T04:12:10.669Z,22.10
2022-08-16T04:14:53.862Z,22.00
2022-08-16T04:17:22.109Z,22.00
2022-08-16T04:19:54.667Z,22.00
2022-08-16T04:22:27.516Z,22.00
2022-08-16T04:24:59.655Z,22.00
2022-08-16T04:27:33.608Z,22.00
2022-08-16T04:30:04.139Z,22.00
2022-08-16T04:32:41.412Z,22.00
2022-08-16T04:35:16.484Z,22.00
2022-08-16T04:37:48.667Z,22.00
2022-08-16T04:40:25.581Z,22.00
2022-08-16T04:42:55.980Z,21.90
2022-08-16T04:45:35.295Z,21.90
2022-08-16T04:48:07.207Z,21.90
2022-08-16T04:50:43.699Z,21.90
2022-08-16T04:53:16.497Z,21.90
2022-08-16T04:55:47.586Z,21.90
2022-08-16T04:58:38.407Z,21.90
2022-08-16T05:01:09.441Z,21.80
2022-08-16T05:03:41.960Z,21.90
2022-08-16T05:06:41.950Z,21.80
2022-08-16T05:09:14.226Z,21.90
2022-08-16T05:11:43.830Z,21.90
2022-08-16T05:14:11.754Z,21.90
2022-08-16T05:16:47.726Z,21.90
2022-08-16T05:19:19.462Z,21.90
2022-08-16T05:22:06.684Z,21.90
2022-08-16T05:24:47.502Z,21.90
2022-08-16T05:27:15.218Z,21.90
2022-08-16T05:29:57.878Z,21.90
2022-08-16T05:32:32.870Z,21.90
2022-08-16T05:35:15.442Z,21.90
2022-08-16T05:38:33.456Z,21.90
2022-08-16T05:40:59.807Z,21.90
2022-08-16T05:43:43.508Z,21.90
2022-08-16T05:46:28.760Z,21.90
2022-08-16T05:49:09.073Z,21.90
2022-08-16T05:51:41.711Z,21.90
2022-08-16T05:54:14.200Z,21.90
2022-08-16T05:56:43.269Z,21.90
2022-08-16T05:59:11.673Z,21.90
2022-08-16T06:01:40.546Z,21.90
2022-08-16T06:04:13.612Z,22.00
2022-08-16T06:06:57.594Z,22.00
2022-08-16T06:09:43.469Z,22.00
2022-08-16T06:12:26.703Z,22.00
2022-08-16T06:15:04.553Z,22.00
2022-08-16T06:17:42.638Z,22.10
2022-08-16T06:20:23.710Z,22.10
2022-08-16T06:22:58.834Z,22.10
2022-08-16T06:25:39.824Z,22.10
2022-08-16T06:28:16.843Z,22.10
2022-08-16T06:30:45.518Z,22.10
2022-08-16T06:33:22.674Z,22.20
2022-08-16T06:35:55.229Z,22.20
2022-08-16T06:38:32.273Z,22.20
2022-08-16T06:41:13.548Z,22.20
2022-08-16T06:43:42.124Z,22.20
2022-08-16T06:46:31.922Z,22.20
2022-08-16T06:49:05.195Z,22.30
2022-08-16T06:51:46.214Z,22.30
2022-08-16T06:54:18.318Z,22.30
2022-08-16T06:56:45.968Z,22.40
2022-08-16T06:59:15.171Z,22.40
2022-08-16T07:01:54.570Z,22.40
2022-08-16T07:04:32.653Z,22.40
2022-08-16T07:07:14.421Z,22.50
2022-08-16T07:09:42.694Z,22.60
2022-08-16T07:12:10.548Z,22.50
2022-08-16T07:14:41.690Z,22.60
2022-08-16T07:17:12.952Z,22.70
2022-08-16T07:20:03.473Z,22.70
2022-08-16T07:22:52.664Z,22.70
2022-08-16T07:25:35.219Z,22.80
2022-08-16T07:28:11.792Z,22.80
2022-08-16T07:30:46.599Z,22.80
2022-08-16T07:33:52.378Z,22.90
2022-08-16T07:36:22.627Z,22.90
2022-08-16T07:38:52.320Z,23.00
2022-08-16T07:41:20.882Z,23.00
2022-08-16T07:43:53.907Z,23.10
2022-08-16T07:46:37.812Z,23.10
2022-08-16T07:49:16.754Z,23.10
2022-08-16T07:51:45.989Z,23.20
2022-08-16T07:54:20.832Z,23.20
2022-08-16T07:56:53.118Z,23.30
2022-08-16T07:59:20.959Z,23.30
2022-08-16T08:01:48.467Z,23.40
2022-08-16T08:04:20.715Z,23.40
2022-08-16T08:06:51.147Z,23.40
2022-08-16T08:09:19.383Z,23.50
2022-08-16T08:12:00.791Z,23.50
2022-08-16T08:14:29.629Z,23.60
2022-08-16T08:17:01.505Z,23.60
2022-08-16T08:19:30.926Z,23.70
2022-08-16T08:22:01.878Z,23.70
2022-08-16T08:24:50.209Z,23.80
2022-08-16T08:27:22.897Z,23.80
2022-08-16T08:30:50.537Z,23.90
2022-08-16T08:32:57.727Z,23.90
2022-08-16T08:35:28.680Z,23.90
2022-08-16T08:37:58.252Z,24.00
2022-08-16T08:40:29.347Z,24.00
2022-08-16T08:43:11.500Z,24.10
2022-08-16T08:45:46.808Z,24.10
2022-08-16T08:48:33.441Z,24.20
2022-08-16T08:51:09.166Z,24.20
2022-08-16T08:53:47.050Z,24.30
2022-08-16T08:56:27.938Z,24.30
2022-08-16T08:59:13.042Z,24.40
2022-08-16T09:01:56.500Z,24.40
2022-08-16T09:04:29.601Z,24.50
2022-08-16T09:07:01.448Z,24.50
2022-08-16T09:09:33.486Z,24.60
2022-08-16T09:12:06.172Z,24.60
2022-08-16T09:14:49.366Z,24.60
2022-08-16T09:17:45.264Z,24.70
2022-08-16T09:20:13.504Z,24.80
2022-08-16T09:22:42.357Z,24.90
2022-08-16T09:25:14.534Z,24.90
2022-08-16T09:27:57.186Z,25.00
2022-08-16T09:30:35.947Z,25.00
2022-08-16T09:33:12.347Z,25.10
2022-08-16T09:35:42.572Z,25.10
2022-08-16T09:38:12.221Z,25.20
2022-08-16T09:40:44.332Z,25.20
2022-08-16T09:43:46.444Z,25.30
2022-08-16T09:46:02.939Z,25.30
2022-08-16T09:48:44.495Z,25.40
2022-08-16T09:51:18.674Z,25.40
2022-08-16T09:53:53.729Z,25.50
2022-08-16T09:56:31.594Z,25.50
2022-08-16T09:59:04.774Z,25.60
2022-08-16T10:01:36.708Z,25.60
2022-08-16T10:04:29.962Z,25.70
2022-08-16T10:09:44.876Z,25.80
2022-08-16T10:12:42.575Z,25.80
2022-08-16T10:15:17.136Z,25.90
2022-08-16T10:17:59.831Z,25.90
2022-08-16T10:20:32.519Z,26.00
2022-08-16T10:23:07.078Z,26.10
2022-08-16T10:27:17.135Z,26.10
2022-08-16T10:28:32.469Z,26.10
2022-08-16T10:31:08.149Z,26.20
2022-08-16T10:33:40.220Z,26.20
2022-08-16T10:36:09.059Z,26.30
2022-08-16T10:38:38.585Z,26.40
2022-08-16T10:41:07.625Z,26.40
2022-08-16T10:43:39.767Z,26.40
2022-08-16T10:46:39.340Z,26.50
2022-08-16T10:48:59.113Z,26.50
2022-08-16T10:51:34.499Z,26.60
2022-08-16T10:54:28.288Z,26.60
2022-08-16T10:56:59.160Z,26.70
2022-08-16T10:59:38.427Z,26.70
2022-08-16T11:02:59.535Z,26.80
2022-08-16T11:05:06.515Z,26.90
2022-08-16T11:07:43.789Z,26.90
2022-08-16T11:19:03.501Z,27.10
2022-08-16T11:21:35.111Z,27.10
2022-08-16T11:24:03.160Z,27.20
2022-08-16T11:26:30.937Z,27.20
2022-08-16T11:29:14.498Z,27.30
2022-08-16T11:31:45.634Z,27.30
2022-08-16T11:34:14.395Z,27.30
2022-08-16T11:36:59.497Z,27.30
2022-08-16T11:39:32.044Z,27.40
2022-08-16T11:42:02.441Z,27.40
2022-08-16T11:44:52.552Z,27.40
2022-08-16T11:47:17.691Z,27.50
2022-08-16T11:49:45.387Z,27.40
2022-08-16T11:52:12.703Z,27.50
2022-08-16T11:54:45.775Z,27.50
2022-08-16T11:57:21.255Z,27.50
2022-08-16T11:59:49.195Z,27.60
2022-08-16T12:02:31.190Z,27.70
2022-08-16T12:05:01.101Z,27.70
2022-08-16T12:07:29.014Z,27.80
2022-08-16T12:09:59.269Z,27.80
2022-08-16T12:12:28.652Z,27.90
2022-08-16T12:15:00.043Z,28.00
2022-08-16T12:17:32.320Z,28.10
2022-08-16T12:20:12.797Z,28.20
2022-08-16T12:22:47.103Z,28.30
2022-08-16T12:25:16.626Z,28.40
2022-08-16T12:27:46.408Z,28.50
2022-08-16T12:30:25.937Z,28.60
2022-08-16T12:32:54.870Z,28.70
2022-08-16T12:35:27.350Z,28.80
2022-08-16T12:37:59.033Z,28.90
2022-08-16T12:40:33.928Z,29.00
2022-08-16T12:43:04.697Z,29.00
2022-08-16T12:45:36.634Z,29.10
2022-08-16T12:48:39.896Z,29.10
2022-08-16T12:51:22.103Z,29.20
2022-08-16T12:53:53.379Z,29.30
2022-08-16T12:56:25.950Z,29.30
2022-08-16T12:58:56.101Z,29.40
2022-08-16T13:01:28.609Z,29.40
2022-08-16T13:04:19.807Z,29.50
2022-08-16T13:06:46.036Z,29.50
2022-08-16T13:09:21.002Z,29.50
2022-08-16T13:12:01.552Z,29.50
2022-08-16T13:14:42.495Z,29.60
2022-08-16T13:17:19.880Z,29.70
2022-08-16T13:20:08.604Z,29.90
2022-08-16T13:22:41.578Z,30.10
2022-08-16T13:25:14.074Z,30.30
2022-08-16T13:28:03.100Z,30.60
2022-08-16T13:30:41.349Z,30.90
2022-08-16T13:33:14.030Z,31.30
2022-08-16T13:35:56.039Z,31.60
2022-08-16T13:38:31.375Z,32.00
2022-08-16T13:41:08.356Z,32.40
2022-08-16T13:43:38.239Z,32.80
2022-08-16T13:46:06.961Z,33.10
2022-08-16T13:48:43.003Z,33.40
2022-08-16T13:51:17.439Z,33.80
2022-08-16T13:53:59.948Z,34.10
2022-08-16T13:56:37.417Z,34.30
2022-08-16T13:59:20.846Z,34.40
2022-08-16T14:01:54.420Z,34.40
2022-08-16T14:04:35.329Z,34.50
2022-08-16T14:07:06.928Z,34.80
2022-08-16T14:09:36.414Z,35.20
2022-08-16T14:12:17.898Z,35.60
2022-08-16T14:14:46.813Z,35.80
2022-08-16T14:17:14.849Z,35.70
2022-08-16T14:19:46.272Z,35.60
2022-08-16T14:22:31.331Z,35.40
2022-08-16T14:25:10.125Z,35.30
2022-08-16T14:27:42.126Z,35.20
2022-08-16T14:30:11.317Z,35.10
2022-08-16T14:32:46.772Z,35.20
2022-08-16T14:35:21.301Z,35.40
2022-08-16T14:37:57.298Z,35.60
2022-08-16T14:40:24.766Z,35.50
2022-08-16T14:42:57.113Z,35.50
2022-08-16T14:45:27.106Z,35.40
2022-08-16T14:47:55.293Z,35.60
2022-08-16T14:50:25.732Z,35.80
2022-08-16T14:53:00.787Z,36.10
2022-08-16T14:55:30.006Z,36.10
2022-08-16T14:57:58.127Z,36.00
2022-08-16T15:00:33.882Z,35.80
2022-08-16T15:03:09.559Z,35.60
2022-08-16T15:05:39.976Z,35.30
2022-08-16T15:08:07.651Z,35.10
2022-08-16T15:10:37.402Z,34.80
2022-08-16T15:13:09.433Z,34.60
2022-08-16T15:15:39.923Z,34.40
2022-08-16T15:18:12.054Z,34.20
2022-08-16T15:20:41.389Z,34.00
2022-08-16T15:23:10.619Z,33.80
2022-08-16T15:25:43.836Z,33.80
2022-08-16T15:28:30.818Z,33.60
2022-08-16T15:31:06.089Z,33.50
2022-08-16T15:33:42.119Z,33.30
2022-08-16T15:36:18.038Z,33.30
2022-08-16T15:39:02.571Z,33.30
2022-08-16T15:41:43.184Z,33.30
2022-08-16T15:44:14.616Z,33.40
2022-08-16T15:46:55.688Z,33.40
2022-08-16T15:49:37.899Z,33.40
2022-08-16T15:52:34.848Z,33.30
2022-08-16T15:55:13.321Z,33.20
2022-08-16T15:57:51.529Z,33.00
2022-08-16T16:00:20.599Z,33.00
2022-08-16T16:02:49.577Z,32.90
2022-08-16T16:05:18.977Z,32.90
2022-08-16T16:07:56.329Z,33.00
2022-08-16T16:10:28.353Z,33.10
2022-08-16T16:13:00.419Z,33.10
2022-08-16T16:15:36.923Z,33.10
2022-08-16T16:18:09.410Z,33.00
2022-08-16T16:20:39.663Z,33.00
2022-08-16T16:23:10.191Z,32.90
2022-08-16T16:25:39.702Z,32.80
2022-08-16T16:29:05.272Z,32.80
2022-08-16T16:31:01.949Z,32.80
2022-08-16T16:33:33.805Z,32.60
2022-08-16T16:36:06.870Z,32.50
2022-08-16T16:38:34.951Z,32.50
2022-08-16T16:41:09.263Z,32.30
2022-08-16T16:43:40.784Z,32.20
2022-08-16T16:46:40.388Z,32.10
2022-08-16T16:48:57.474Z,32.00
2022-08-16T16:51:27.954Z,31.90
2022-08-16T16:53:56.831Z,31.80
2022-08-16T16:56:30.318Z,31.80
2022-08-16T16:59:04.472Z,31.70
2022-08-16T17:01:56.651Z,31.60
2022-08-16T17:04:31.844Z,31.60
2022-08-16T17:07:01.718Z,31.50
2022-08-16T17:09:29.787Z,31.40
2022-08-16T17:11:58.414Z,31.40
2022-08-16T17:14:33.001Z,31.20
2022-08-16T17:17:07.035Z,31.10
2022-08-16T17:19:40.883Z,31.00
2022-08-16T17:22:14.822Z,31.00
2022-08-16T17:24:50.688Z,30.90
2022-08-16T17:27:32.609Z,30.80
2022-08-16T17:33:03.703Z,30.70
2022-08-16T17:35:37.537Z,30.60
2022-08-16T17:38:07.397Z,30.60
2022-08-16T17:39:26.965Z,30.80
2022-08-16T17:40:47.902Z,30.50
2022-08-16T17:43:32.435Z,30.40
2022-08-16T17:46:00.539Z,30.40
2022-08-16T17:48:30.976Z,30.30
2022-08-16T17:50:59.414Z,30.30
2022-08-16T17:53:26.855Z,30.20
2022-08-16T17:55:54.694Z,30.10
2022-08-16T17:58:24.109Z,30.00
2022-08-16T18:00:54.782Z,30.00
2022-08-16T18:04:02.811Z,29.90
2022-08-16T18:06:18.269Z,29.90
2022-08-16T18:08:52.027Z,29.80
2022-08-16T18:11:26.290Z,29.70
2022-08-16T18:13:54.599Z,29.70
2022-08-16T18:16:21.999Z,29.60
2022-08-16T18:18:49.237Z,29.50
2022-08-16T18:21:35.265Z,29.50
2022-08-16T18:24:02.742Z,29.40
2022-08-16T18:26:30.109Z,29.30
2022-08-16T18:28:57.339Z,29.30
2022-08-16T18:31:25.150Z,29.20
2022-08-16T18:33:55.516Z,29.10
2022-08-16T18:36:24.657Z,29.10
2022-08-16T18:38:53.001Z,29.00
2022-08-16T18:41:23.052Z,28.90
2022-08-16T18:44:22.276Z,28.80
2022-08-16T18:46:43.207Z,28.80
2022-08-16T18:49:13.257Z,28.70
2022-08-16T18:51:45.602Z,28.60
2022-08-16T18:54:14.454Z,28.50
2022-08-16T18:56:55.039Z,28.50
2022-08-16T18:59:26.943Z,28.40
2022-08-16T19:01:59.680Z,28.40
2022-08-16T19:04:47.699Z,28.30
2022-08-16T19:07:15.597Z,28.20
2022-08-16T19:09:43.114Z,28.20
2022-08-16T19:12:10.363Z,28.10
2022-08-16T19:14:37.604Z,28.10
2022-08-16T19:17:05.373Z,28.10
2022-08-16T19:19:32.613Z,28.10
2022-08-16T19:21:59.906Z,28.00
2022-08-16T19:24:29.272Z,28.00
2022-08-16T19:26:57.113Z,27.90
2022-08-16T19:29:24.646Z,27.90
2022-08-16T19:31:51.956Z,27.90
2022-08-16T19:34:19.188Z,27.90
2022-08-16T19:36:46.402Z,27.90
2022-08-16T19:39:16.443Z,27.90
2022-08-16T19:41:53.711Z,27.80
2022-08-16T19:44:23.165Z,27.80
2022-08-16T19:46:51.123Z,27.80
2022-08-16T19:49:18.415Z,27.80
2022-08-16T19:51:46.445Z,27.80
2022-08-16T19:54:14.025Z,27.80
2022-08-16T19:56:41.272Z,27.80
2022-08-16T19:59:40.445Z,27.80
2022-08-16T20:01:55.868Z,27.80
2022-08-16T20:04:24.483Z,27.80
2022-08-16T20:06:53.277Z,27.80
2022-08-16T20:09:22.541Z,27.80
2022-08-16T20:11:52.078Z,27.80
2022-08-16T20:14:25.080Z,27.80
2022-08-16T20:16:58.536Z,27.80
2022-08-16T20:19:27.895Z,27.70
2022-08-16T20:21:56.716Z,27.70
2022-08-16T20:24:40.412Z,27.70
2022-08-16T20:27:09.714Z,27.70
2022-08-16T20:29:39.105Z,27.70
2022-08-16T20:32:13.045Z,27.60
2022-08-16T20:34:43.961Z,27.60
2022-08-16T20:37:12.742Z,27.60
2022-08-16T20:39:40.659Z,27.60
2022-08-16T20:42:08.237Z,27.50
2022-08-16T20:44:35.525Z,27.50
2022-08-16T20:47:02.737Z,27.50
2022-08-16T20:49:29.979Z,27.50
2022-08-16T20:51:59.511Z,27.50
2022-08-16T20:54:28.860Z,27.50
2022-08-16T20:56:56.285Z,27.40
2022-08-16T20:59:23.579Z,27.40
2022-08-16T21:01:51.107Z,27.40
2022-08-16T21:04:21.584Z,27.40
2022-08-16T21:06:53.764Z,27.40
2022-08-16T21:09:28.707Z,27.30
2022-08-16T21:11:57.578Z,27.30
2022-08-16T21:14:25.910Z,27.30
2022-08-16T21:16:55.817Z,27.30
2022-08-16T21:19:23.196Z,27.30
2022-08-16T21:21:50.441Z,27.20
2022-08-16T21:24:17.668Z,27.20
2022-08-16T21:26:55.504Z,27.20
2022-08-16T21:29:28.481Z,27.20
2022-08-16T21:32:12.782Z,27.20
2022-08-16T21:34:41.438Z,27.10
2022-08-16T21:37:08.892Z,27.10
2022-08-16T21:39:36.313Z,27.10
2022-08-16T21:42:11.340Z,27.00
2022-08-16T21:44:39.251Z,27.00
2022-08-16T21:47:07.023Z,27.00
2022-08-16T21:49:37.217Z,27.00
2022-08-16T21:52:05.972Z,26.90
2022-08-16T21:54:33.569Z,26.90
2022-08-16T21:57:00.814Z,26.90
2022-08-16T21:59:28.032Z,26.90
2022-08-16T22:01:55.422Z,26.90
2022-08-16T22:04:37.757Z,26.90
2022-08-16T22:07:06.873Z,26.80
2022-08-16T22:09:34.152Z,26.80
2022-08-16T22:12:01.391Z,26.70
2022-08-16T22:14:28.668Z,26.70
2022-08-16T22:16:56.008Z,26.70
2022-08-16T22:19:23.959Z,26.60
2022-08-16T22:21:51.804Z,26.60
2022-08-16T22:24:19.117Z,26.60
2022-08-16T22:26:46.315Z,26.50
2022-08-16T22:29:15.018Z,26.50
2022-08-16T22:31:44.266Z,26.50
2022-08-16T22:34:12.585Z,26.40
2022-08-16T22:36:40.295Z,26.30
2022-08-16T22:39:11.341Z,26.30
2022-08-16T22:41:40.340Z,26.20
2022-08-16T22:44:08.620Z,26.20
2022-08-16T22:46:36.638Z,26.10
2022-08-16T22:49:05.784Z,26.10
2022-08-16T22:51:33.658Z,26.10
2022-08-16T22:54:33.861Z,26.10
2022-08-16T22:56:48.590Z,26.00
2022-08-16T22:59:15.817Z,26.00
2022-08-16T23:01:43.841Z,26.00
2022-08-16T23:04:11.187Z,25.90
2022-08-16T23:06:38.696Z,25.90
2022-08-16T23:09:05.924Z,25.90
2022-08-16T23:11:33.351Z,25.90
2022-08-16T23:14:00.546Z,25.90
2022-08-16T23:16:33.284Z,25.90
2022-08-16T23:19:07.941Z,25.90
2022-08-16T23:21:37.109Z,25.90
2022-08-16T23:24:05.837Z,25.80
2022-08-16T23:26:47.106Z,25.80
2022-08-16T23:29:24.477Z,25.80
2022-08-16T23:31:55.707Z,25.80
2022-08-16T23:34:23.453Z,25.80
2022-08-16T23:36:50.702Z,25.70
2022-08-16T23:39:17.938Z,25.70
2022-08-16T23:41:45.213Z,25.70
2022-08-16T23:44:42.259Z,25.70
2022-08-16T23:46:59.661Z,25.70
2022-08-16T23:49:58.704Z,25.60
2022-08-16T23:52:14.718Z,25.60
2022-08-16T23:54:41.913Z,25.60
2022-08-16T23:57:09.102Z,25.60
2022-08-16T23:59:52.133Z,25.50
